sensor_id;sensor_type;location;lat;lon;timestamp;pressure;altitude;pressure_sealevel;temperature;humidity
68822;BME280;55834;50.870;4.606;2023-03-31T00:01:02;99710.06;;;9.55;63.78
68822;BME280;55834;50.870;4.606;2023-03-31T00:03:28;99707.81;;;9.46;64.15
68822;BME280;55834;50.870;4.606;2023-03-31T00:05:55;99704.25;;;9.89;63.55
68822;BME280;55834;50.870;4.606;2023-03-31T00:08:22;99703.66;;;9.17;65.31
68822;BME280;55834;50.870;4.606;2023-03-31T00:10:48;99703.59;;;9.42;64.92
68822;BME280;55834;50.870;4.606;2023-03-31T00:13:13;99692.41;;;9.57;64.91
68822;BME280;55834;50.870;4.606;2023-03-31T00:15:39;99700.75;;;9.24;64.96
68822;BME280;55834;50.870;4.606;2023-03-31T00:18:05;99697.22;;;9.47;65.34
68822;BME280;55834;50.870;4.606;2023-03-31T00:20:30;99703.47;;;9.67;65.11
68822;BME280;55834;50.870;4.606;2023-03-31T00:23:02;99704.81;;;9.10;65.41
68822;BME280;55834;50.870;4.606;2023-03-31T00:25:27;99698.63;;;9.11;65.88
68822;BME280;55834;50.870;4.606;2023-03-31T00:27:53;99689.19;;;9.51;64.92
68822;BME280;55834;50.870;4.606;2023-03-31T00:30:19;99688.25;;;9.74;64.09
68822;BME280;55834;50.870;4.606;2023-03-31T00:32:44;99690.50;;;10.03;62.92
68822;BME280;55834;50.870;4.606;2023-03-31T00:35:10;99687.31;;;9.75;63.71
68822;BME280;55834;50.870;4.606;2023-03-31T00:37:36;99683.94;;;9.71;64.02
68822;BME280;55834;50.870;4.606;2023-03-31T00:40:01;99674.94;;;9.97;62.92
68822;BME280;55834;50.870;4.606;2023-03-31T00:42:30;99677.63;;;9.33;65.39
68822;BME280;55834;50.870;4.606;2023-03-31T00:47:44;99678.56;;;9.30;65.61
68822;BME280;55834;50.870;4.606;2023-03-31T00:50:46;99671.72;;;9.70;65.76
68822;BME280;55834;50.870;4.606;2023-03-31T00:53:16;99654.81;;;9.32;66.08
68822;BME280;55834;50.870;4.606;2023-03-31T00:55:46;99655.44;;;9.15;66.96
68822;BME280;55834;50.870;4.606;2023-03-31T00:58:14;99640.22;;;9.01;67.09
68822;BME280;55834;50.870;4.606;2023-03-31T01:00:45;99638.63;;;9.19;66.28
68822;BME280;55834;50.870;4.606;2023-03-31T01:03:12;99632.13;;;9.05;67.04
68822;BME280;55834;50.870;4.606;2023-03-31T01:05:54;99626.38;;;8.96;67.79
68822;BME280;55834;50.870;4.606;2023-03-31T01:08:23;99620.56;;;9.10;67.69
68822;BME280;55834;50.870;4.606;2023-03-31T01:11:05;99614.25;;;9.14;66.86
68822;BME280;55834;50.870;4.606;2023-03-31T01:13:35;99600.22;;;8.91;67.33
68822;BME280;55834;50.870;4.606;2023-03-31T01:16:01;99590.03;;;9.26;66.14
68822;BME280;55834;50.870;4.606;2023-03-31T01:18:26;99572.53;;;9.03;66.19
68822;BME280;55834;50.870;4.606;2023-03-31T01:23:57;99548.69;;;8.64;67.55
68822;BME280;55834;50.870;4.606;2023-03-31T01:38:32;99500.16;;;9.56;65.04
68822;BME280;55834;50.870;4.606;2023-03-31T01:43:52;99503.13;;;9.05;66.79
68822;BME280;55834;50.870;4.606;2023-03-31T01:49:13;99463.75;;;9.02;66.83
68822;BME280;55834;50.870;4.606;2023-03-31T01:51:44;99448.47;;;9.33;66.34
68822;BME280;55834;50.870;4.606;2023-03-31T01:54:20;99442.91;;;9.18;66.04
68822;BME280;55834;50.870;4.606;2023-03-31T01:59:37;99420.03;;;9.60;65.86
68822;BME280;55834;50.870;4.606;2023-03-31T02:02:16;99410.00;;;9.68;64.79
68822;BME280;55834;50.870;4.606;2023-03-31T02:04:53;99396.97;;;9.65;63.40
68822;BME280;55834;50.870;4.606;2023-03-31T02:07:26;99402.84;;;9.51;63.71
68822;BME280;55834;50.870;4.606;2023-03-31T02:09:57;99385.19;;;9.53;64.15
68822;BME280;55834;50.870;4.606;2023-03-31T02:12:25;99380.13;;;9.48;64.68
68822;BME280;55834;50.870;4.606;2023-03-31T02:14:53;99371.81;;;9.39;64.75
68822;BME280;55834;50.870;4.606;2023-03-31T02:17:23;99359.91;;;9.68;63.82
68822;BME280;55834;50.870;4.606;2023-03-31T02:20:00;99348.88;;;9.60;64.36
68822;BME280;55834;50.870;4.606;2023-03-31T02:22:32;99350.44;;;9.83;63.57
68822;BME280;55834;50.870;4.606;2023-03-31T02:25:01;99343.56;;;9.61;63.06
68822;BME280;55834;50.870;4.606;2023-03-31T02:27:34;99329.50;;;9.61;63.28
68822;BME280;55834;50.870;4.606;2023-03-31T02:30:01;99315.84;;;9.34;63.90
68822;BME280;55834;50.870;4.606;2023-03-31T02:32:42;99318.03;;;9.43;63.30
68822;BME280;55834;50.870;4.606;2023-03-31T02:35:14;99319.25;;;9.55;63.15
68822;BME280;55834;50.870;4.606;2023-03-31T02:37:41;99307.13;;;9.32;62.78
68822;BME280;55834;50.870;4.606;2023-03-31T02:40:11;99306.13;;;9.15;64.24
68822;BME280;55834;50.870;4.606;2023-03-31T02:42:40;99289.59;;;9.31;63.90
68822;BME280;55834;50.870;4.606;2023-03-31T02:45:37;99287.63;;;9.55;62.69
68822;BME280;55834;50.870;4.606;2023-03-31T02:48:04;99273.09;;;9.65;63.05
68822;BME280;55834;50.870;4.606;2023-03-31T02:50:36;99250.28;;;9.83;62.09
68822;BME280;55834;50.870;4.606;2023-03-31T02:53:14;99260.03;;;9.81;61.86
68822;BME280;55834;50.870;4.606;2023-03-31T03:07:02;99219.94;;;9.38;62.31
68822;BME280;55834;50.870;4.606;2023-03-31T03:09:44;99209.53;;;8.97;63.29
68822;BME280;55834;50.870;4.606;2023-03-31T03:12:31;99201.34;;;8.84;63.78
68822;BME280;55834;50.870;4.606;2023-03-31T03:15:39;99198.16;;;8.77;64.38
68822;BME280;55834;50.870;4.606;2023-03-31T03:18:07;99194.72;;;8.75;64.95
68822;BME280;55834;50.870;4.606;2023-03-31T03:20:32;99190.97;;;8.81;64.73
68822;BME280;55834;50.870;4.606;2023-03-31T03:22:58;99180.50;;;8.98;63.51
68822;BME280;55834;50.870;4.606;2023-03-31T03:25:24;99173.47;;;8.99;63.58
68822;BME280;55834;50.870;4.606;2023-03-31T03:27:49;99168.59;;;9.09;63.34
68822;BME280;55834;50.870;4.606;2023-03-31T03:30:17;99163.44;;;9.07;64.18
68822;BME280;55834;50.870;4.606;2023-03-31T03:32:43;99161.34;;;9.14;63.85
68822;BME280;55834;50.870;4.606;2023-03-31T03:35:09;99154.97;;;8.81;64.30
68822;BME280;55834;50.870;4.606;2023-03-31T03:37:35;99145.78;;;8.52;66.20
68822;BME280;55834;50.870;4.606;2023-03-31T03:40:00;99137.31;;;9.21;64.99
68822;BME280;55834;50.870;4.606;2023-03-31T03:42:26;99140.03;;;8.63;65.85
68822;BME280;55834;50.870;4.606;2023-03-31T03:44:51;99140.03;;;8.82;66.01
68822;BME280;55834;50.870;4.606;2023-03-31T03:47:17;99132.44;;;8.76;65.14
68822;BME280;55834;50.870;4.606;2023-03-31T03:49:42;99127.69;;;9.20;65.18
68822;BME280;55834;50.870;4.606;2023-03-31T03:52:07;99117.50;;;8.95;64.51
68822;BME280;55834;50.870;4.606;2023-03-31T03:54:33;99120.63;;;8.85;65.54
68822;BME280;55834;50.870;4.606;2023-03-31T03:56:58;99119.22;;;8.19;67.67
68822;BME280;55834;50.870;4.606;2023-03-31T03:59:23;99128.03;;;8.57;66.71
68822;BME280;55834;50.870;4.606;2023-03-31T04:01:49;99161.63;;;7.69;68.34
68822;BME280;55834;50.870;4.606;2023-03-31T04:04:14;99156.34;;;8.32;68.19
68822;BME280;55834;50.870;4.606;2023-03-31T04:06:40;99124.59;;;9.12;66.19
68822;BME280;55834;50.870;4.606;2023-03-31T04:09:06;99109.56;;;9.51;65.37
68822;BME280;55834;50.870;4.606;2023-03-31T04:11:32;99115.28;;;9.41;63.30
68822;BME280;55834;50.870;4.606;2023-03-31T04:13:57;99124.38;;;9.70;63.83
68822;BME280;55834;50.870;4.606;2023-03-31T04:16:23;99102.41;;;10.05;63.08
68822;BME280;55834;50.870;4.606;2023-03-31T04:18:52;99053.97;;;9.72;62.32
68822;BME280;55834;50.870;4.606;2023-03-31T04:21:21;99043.56;;;9.87;62.12
68822;BME280;55834;50.870;4.606;2023-03-31T04:23:50;99056.38;;;9.77;60.78
68822;BME280;55834;50.870;4.606;2023-03-31T04:26:24;99057.47;;;9.90;61.17
68822;BME280;55834;50.870;4.606;2023-03-31T04:28:58;99053.78;;;10.10;61.02
68822;BME280;55834;50.870;4.606;2023-03-31T04:31:25;99055.88;;;10.04;60.72
68822;BME280;55834;50.870;4.606;2023-03-31T04:33:54;99058.00;;;9.97;61.11
68822;BME280;55834;50.870;4.606;2023-03-31T04:36:20;99039.25;;;9.86;61.29
68822;BME280;55834;50.870;4.606;2023-03-31T04:38:48;99034.50;;;9.92;61.24
68822;BME280;55834;50.870;4.606;2023-03-31T04:41:19;99020.00;;;9.51;63.28
68822;BME280;55834;50.870;4.606;2023-03-31T04:43:44;99021.91;;;9.82;63.41
68822;BME280;55834;50.870;4.606;2023-03-31T04:46:09;99020.53;;;9.40;64.24
68822;BME280;55834;50.870;4.606;2023-03-31T04:48:35;99006.97;;;9.30;65.13
68822;BME280;55834;50.870;4.606;2023-03-31T04:51:00;99008.50;;;9.17;64.99
68822;BME280;55834;50.870;4.606;2023-03-31T04:53:26;99006.94;;;8.95;65.89
68822;BME280;55834;50.870;4.606;2023-03-31T04:55:51;99003.53;;;9.11;66.36
68822;BME280;55834;50.870;4.606;2023-03-31T04:58:17;98992.31;;;9.07;66.14
68822;BME280;55834;50.870;4.606;2023-03-31T05:00:42;98998.19;;;8.40;67.29
68822;BME280;55834;50.870;4.606;2023-03-31T05:03:08;98992.00;;;8.59;66.77
68822;BME280;55834;50.870;4.606;2023-03-31T05:05:34;98993.72;;;8.42;67.71
68822;BME280;55834;50.870;4.606;2023-03-31T05:08:00;98983.91;;;8.45;68.70
68822;BME280;55834;50.870;4.606;2023-03-31T05:10:25;98978.47;;;8.12;68.47
68822;BME280;55834;50.870;4.606;2023-03-31T05:12:50;98978.25;;;8.35;68.21
68822;BME280;55834;50.870;4.606;2023-03-31T05:15:16;98975.34;;;9.13;66.54
68822;BME280;55834;50.870;4.606;2023-03-31T05:17:41;98973.22;;;8.67;67.60
68822;BME280;55834;50.870;4.606;2023-03-31T05:20:07;98974.19;;;8.84;66.80
68822;BME280;55834;50.870;4.606;2023-03-31T05:22:37;98979.00;;;8.56;67.17
68822;BME280;55834;50.870;4.606;2023-03-31T05:25:05;98972.22;;;8.70;67.95
68822;BME280;55834;50.870;4.606;2023-03-31T05:27:31;98973.41;;;8.81;67.81
68822;BME280;55834;50.870;4.606;2023-03-31T05:29:57;98972.47;;;8.46;68.62
68822;BME280;55834;50.870;4.606;2023-03-31T05:32:23;98971.25;;;8.53;68.16
68822;BME280;55834;50.870;4.606;2023-03-31T05:34:49;98977.53;;;8.68;67.92
68822;BME280;55834;50.870;4.606;2023-03-31T05:37:17;98971.13;;;8.00;69.47
68822;BME280;55834;50.870;4.606;2023-03-31T05:39:42;98962.53;;;8.70;68.47
68822;BME280;55834;50.870;4.606;2023-03-31T05:42:08;98964.78;;;8.04;69.53
68822;BME280;55834;50.870;4.606;2023-03-31T05:44:33;98956.31;;;8.18;69.37
68822;BME280;55834;50.870;4.606;2023-03-31T05:46:58;98958.50;;;8.46;68.29
68822;BME280;55834;50.870;4.606;2023-03-31T05:49:24;98951.06;;;8.54;67.97
68822;BME280;55834;50.870;4.606;2023-03-31T05:51:49;98944.25;;;8.31;68.25
68822;BME280;55834;50.870;4.606;2023-03-31T05:54:15;98950.41;;;8.12;69.54
68822;BME280;55834;50.870;4.606;2023-03-31T05:56:41;98932.69;;;8.89;67.97
68822;BME280;55834;50.870;4.606;2023-03-31T05:59:06;98927.50;;;9.04;66.91
68822;BME280;55834;50.870;4.606;2023-03-31T06:01:31;98928.94;;;8.22;67.98
68822;BME280;55834;50.870;4.606;2023-03-31T06:03:57;98930.59;;;8.61;67.61
68822;BME280;55834;50.870;4.606;2023-03-31T06:06:22;98925.91;;;8.12;68.53
68822;BME280;55834;50.870;4.606;2023-03-31T06:08:48;98923.75;;;7.82;69.84
68822;BME280;55834;50.870;4.606;2023-03-31T06:11:16;98919.53;;;7.78;70.70
68822;BME280;55834;50.870;4.606;2023-03-31T06:13:47;98914.19;;;8.36;68.29
68822;BME280;55834;50.870;4.606;2023-03-31T06:16:13;98913.00;;;8.25;68.86
68822;BME280;55834;50.870;4.606;2023-03-31T06:18:39;98919.44;;;8.36;68.70
68822;BME280;55834;50.870;4.606;2023-03-31T06:21:05;98916.44;;;7.89;69.43
68822;BME280;55834;50.870;4.606;2023-03-31T06:23:32;98908.63;;;8.06;69.94
68822;BME280;55834;50.870;4.606;2023-03-31T06:26:05;98912.19;;;8.42;68.66
68822;BME280;55834;50.870;4.606;2023-03-31T06:28:33;98901.00;;;7.81;69.20
68822;BME280;55834;50.870;4.606;2023-03-31T06:31:11;98905.72;;;8.49;67.36
68822;BME280;55834;50.870;4.606;2023-03-31T06:33:37;98908.03;;;8.38;68.02
68822;BME280;55834;50.870;4.606;2023-03-31T06:36:04;98897.31;;;8.23;68.02
68822;BME280;55834;50.870;4.606;2023-03-31T06:38:31;98870.41;;;8.72;66.19
68822;BME280;55834;50.870;4.606;2023-03-31T06:40:57;98890.16;;;9.14;65.23
68822;BME280;55834;50.870;4.606;2023-03-31T06:43:22;98885.03;;;7.86;67.87
68822;BME280;55834;50.870;4.606;2023-03-31T06:45:47;98885.44;;;8.51;66.95
68822;BME280;55834;50.870;4.606;2023-03-31T06:48:13;98874.59;;;8.40;67.40
68822;BME280;55834;50.870;4.606;2023-03-31T06:50:39;98881.28;;;8.64;66.26
68822;BME280;55834;50.870;4.606;2023-03-31T06:53:06;98884.13;;;8.42;66.86
68822;BME280;55834;50.870;4.606;2023-03-31T06:55:31;98875.66;;;8.72;65.73
68822;BME280;55834;50.870;4.606;2023-03-31T06:57:58;98881.97;;;8.50;65.64
68822;BME280;55834;50.870;4.606;2023-03-31T07:00:23;98883.25;;;8.78;65.66
68822;BME280;55834;50.870;4.606;2023-03-31T07:02:50;98877.50;;;8.70;65.93
68822;BME280;55834;50.870;4.606;2023-03-31T07:05:15;98875.47;;;9.10;64.83
68822;BME280;55834;50.870;4.606;2023-03-31T07:07:41;98875.69;;;9.22;64.93
68822;BME280;55834;50.870;4.606;2023-03-31T07:10:06;98883.66;;;9.38;64.37
68822;BME280;55834;50.870;4.606;2023-03-31T07:12:32;98880.28;;;8.49;66.27
68822;BME280;55834;50.870;4.606;2023-03-31T07:14:58;98872.94;;;8.56;64.97
68822;BME280;55834;50.870;4.606;2023-03-31T07:17:23;98873.56;;;8.61;65.71
68822;BME280;55834;50.870;4.606;2023-03-31T07:19:49;98879.91;;;8.92;65.04
68822;BME280;55834;50.870;4.606;2023-03-31T07:22:15;98878.88;;;8.94;64.81
68822;BME280;55834;50.870;4.606;2023-03-31T07:24:40;98871.06;;;8.93;63.77
68822;BME280;55834;50.870;4.606;2023-03-31T07:27:05;98883.88;;;8.66;64.60
68822;BME280;55834;50.870;4.606;2023-03-31T07:29:31;98876.56;;;8.88;64.62
68822;BME280;55834;50.870;4.606;2023-03-31T07:31:56;98867.09;;;8.32;65.19
68822;BME280;55834;50.870;4.606;2023-03-31T07:34:21;98875.03;;;8.84;64.95
68822;BME280;55834;50.870;4.606;2023-03-31T07:36:46;98870.41;;;8.72;63.64
68822;BME280;55834;50.870;4.606;2023-03-31T07:39:12;98876.19;;;8.78;64.10
68822;BME280;55834;50.870;4.606;2023-03-31T07:41:37;98874.88;;;8.87;64.05
68822;BME280;55834;50.870;4.606;2023-03-31T07:44:03;98880.66;;;9.11;62.96
68822;BME280;55834;50.870;4.606;2023-03-31T07:46:28;98877.75;;;9.51;62.36
68822;BME280;55834;50.870;4.606;2023-03-31T07:48:55;98879.09;;;9.24;62.65
68822;BME280;55834;50.870;4.606;2023-03-31T07:51:23;98871.56;;;9.17;63.37
68822;BME280;55834;50.870;4.606;2023-03-31T07:53:49;98886.88;;;8.93;64.51
68822;BME280;55834;50.870;4.606;2023-03-31T07:56:17;98876.34;;;8.93;64.63
68822;BME280;55834;50.870;4.606;2023-03-31T07:58:43;98883.84;;;9.00;63.94
68822;BME280;55834;50.870;4.606;2023-03-31T08:01:08;98882.63;;;8.73;65.25
68822;BME280;55834;50.870;4.606;2023-03-31T08:03:33;98880.31;;;9.35;63.83
68822;BME280;55834;50.870;4.606;2023-03-31T08:05:59;98886.13;;;9.41;63.35
68822;BME280;55834;50.870;4.606;2023-03-31T08:08:25;98882.09;;;9.67;62.85
68822;BME280;55834;50.870;4.606;2023-03-31T08:10:51;98869.56;;;9.39;63.49
68822;BME280;55834;50.870;4.606;2023-03-31T08:13:17;98878.75;;;9.64;63.44
68822;BME280;55834;50.870;4.606;2023-03-31T08:15:42;98877.19;;;8.93;65.44
68822;BME280;55834;50.870;4.606;2023-03-31T08:18:07;98874.41;;;8.96;65.37
68822;BME280;55834;50.870;4.606;2023-03-31T08:20:33;98868.13;;;8.81;65.19
68822;BME280;55834;50.870;4.606;2023-03-31T08:22:58;98871.28;;;9.05;64.28
68822;BME280;55834;50.870;4.606;2023-03-31T08:25:24;98866.44;;;9.31;63.77
68822;BME280;55834;50.870;4.606;2023-03-31T08:27:49;98871.72;;;9.64;62.82
68822;BME280;55834;50.870;4.606;2023-03-31T08:30:17;98863.22;;;9.59;63.34
68822;BME280;55834;50.870;4.606;2023-03-31T08:32:43;98881.66;;;9.59;63.48
68822;BME280;55834;50.870;4.606;2023-03-31T08:35:09;98866.84;;;9.23;62.84
68822;BME280;55834;50.870;4.606;2023-03-31T08:37:35;98866.63;;;9.61;61.90
68822;BME280;55834;50.870;4.606;2023-03-31T08:40:05;98852.78;;;9.89;62.81
68822;BME280;55834;50.870;4.606;2023-03-31T08:42:44;98855.16;;;9.78;62.55
68822;BME280;55834;50.870;4.606;2023-03-31T08:45:28;98860.38;;;9.13;63.86
68822;BME280;55834;50.870;4.606;2023-03-31T08:48:18;98853.94;;;9.19;64.44
68822;BME280;55834;50.870;4.606;2023-03-31T08:50:50;98861.72;;;9.38;63.78
68822;BME280;55834;50.870;4.606;2023-03-31T08:53:33;98856.22;;;9.09;63.93
68822;BME280;55834;50.870;4.606;2023-03-31T08:56:03;98850.91;;;9.26;64.54
68822;BME280;55834;50.870;4.606;2023-03-31T08:58:41;98842.38;;;9.21;64.17
68822;BME280;55834;50.870;4.606;2023-03-31T09:03:59;98834.13;;;9.61;63.75
68822;BME280;55834;50.870;4.606;2023-03-31T09:06:58;98838.47;;;9.46;63.97
68822;BME280;55834;50.870;4.606;2023-03-31T09:09:34;98822.06;;;9.72;63.53
68822;BME280;55834;50.870;4.606;2023-03-31T09:12:53;98820.91;;;9.29;65.63
68822;BME280;55834;50.870;4.606;2023-03-31T09:15:03;98822.75;;;9.44;64.69
68822;BME280;55834;50.870;4.606;2023-03-31T09:17:40;98812.66;;;9.53;63.87
68822;BME280;55834;50.870;4.606;2023-03-31T09:20:35;98823.00;;;9.40;64.79
68822;BME280;55834;50.870;4.606;2023-03-31T09:25:46;98812.34;;;8.75;66.70
68822;BME280;55834;50.870;4.606;2023-03-31T09:28:19;98820.69;;;8.31;67.40
68822;BME280;55834;50.870;4.606;2023-03-31T09:30:46;98824.03;;;8.34;67.66
68822;BME280;55834;50.870;4.606;2023-03-31T09:35:42;98815.56;;;8.80;68.10
68822;BME280;55834;50.870;4.606;2023-03-31T09:38:11;98801.50;;;9.14;66.91
68822;BME280;55834;50.870;4.606;2023-03-31T09:40:38;98797.69;;;9.53;65.65
68822;BME280;55834;50.870;4.606;2023-03-31T09:43:07;98795.88;;;9.38;65.97
68822;BME280;55834;50.870;4.606;2023-03-31T09:45:33;98789.78;;;9.53;65.53
68822;BME280;55834;50.870;4.606;2023-03-31T09:48:08;98790.22;;;9.61;65.23
68822;BME280;55834;50.870;4.606;2023-03-31T09:50:43;98787.41;;;9.48;65.55
68822;BME280;55834;50.870;4.606;2023-03-31T09:53:31;98789.72;;;9.70;63.66
68822;BME280;55834;50.870;4.606;2023-03-31T09:56:03;98784.56;;;8.87;66.55
68822;BME280;55834;50.870;4.606;2023-03-31T09:58:30;98780.88;;;9.07;65.30
68822;BME280;55834;50.870;4.606;2023-03-31T10:01:01;98775.78;;;9.19;64.98
68822;BME280;55834;50.870;4.606;2023-03-31T10:03:28;98785.47;;;9.19;65.60
68822;BME280;55834;50.870;4.606;2023-03-31T10:05:56;98774.06;;;9.67;63.94
68822;BME280;55834;50.870;4.606;2023-03-31T10:08:26;98773.69;;;8.93;66.32
68822;BME280;55834;50.870;4.606;2023-03-31T10:11:08;98773.13;;;9.03;66.51
68822;BME280;55834;50.870;4.606;2023-03-31T10:13:45;98769.03;;;9.63;64.76
68822;BME280;55834;50.870;4.606;2023-03-31T10:16:22;98773.97;;;9.37;64.35
68822;BME280;55834;50.870;4.606;2023-03-31T10:18:47;98762.22;;;9.27;65.54
68822;BME280;55834;50.870;4.606;2023-03-31T10:21:25;98754.53;;;9.56;64.88
68822;BME280;55834;50.870;4.606;2023-03-31T10:23:51;98756.06;;;10.06;63.23
68822;BME280;55834;50.870;4.606;2023-03-31T10:26:28;98751.19;;;9.68;62.44
68822;BME280;55834;50.870;4.606;2023-03-31T10:28:54;98748.06;;;9.61;63.97
68822;BME280;55834;50.870;4.606;2023-03-31T10:31:24;98768.19;;;9.62;63.97
68822;BME280;55834;50.870;4.606;2023-03-31T10:33:50;98746.63;;;9.40;64.47
68822;BME280;55834;50.870;4.606;2023-03-31T10:36:21;98735.88;;;9.27;62.66
68822;BME280;55834;50.870;4.606;2023-03-31T10:38:48;98748.56;;;9.36;62.71
68822;BME280;55834;50.870;4.606;2023-03-31T10:41:23;98744.56;;;10.07;61.87
68822;BME280;55834;50.870;4.606;2023-03-31T10:43:50;98748.16;;;9.44;60.94
68822;BME280;55834;50.870;4.606;2023-03-31T10:46:16;98735.38;;;9.68;61.34
68822;BME280;55834;50.870;4.606;2023-03-31T10:48:42;98742.34;;;9.85;61.62
68822;BME280;55834;50.870;4.606;2023-03-31T10:53:45;98737.19;;;9.67;60.86
68822;BME280;55834;50.870;4.606;2023-03-31T11:04:26;98737.06;;;9.85;62.44
68822;BME280;55834;50.870;4.606;2023-03-31T11:07:42;98731.00;;;10.29;61.68
68822;BME280;55834;50.870;4.606;2023-03-31T11:13:01;98737.78;;;10.03;61.91
68822;BME280;55834;50.870;4.606;2023-03-31T11:18:38;98735.38;;;10.14;62.06
68822;BME280;55834;50.870;4.606;2023-03-31T11:37:14;98708.81;;;9.87;63.45
68822;BME280;55834;50.870;4.606;2023-03-31T11:39:53;98713.91;;;9.44;63.40
68822;BME280;55834;50.870;4.606;2023-03-31T11:42:36;98699.94;;;9.58;63.70
68822;BME280;55834;50.870;4.606;2023-03-31T11:45:15;98706.50;;;10.27;62.15
68822;BME280;55834;50.870;4.606;2023-03-31T11:47:44;98691.88;;;9.61;61.56
68822;BME280;55834;50.870;4.606;2023-03-31T11:50:18;98688.72;;;10.00;61.17
68822;BME280;55834;50.870;4.606;2023-03-31T11:53:33;98690.28;;;9.88;60.58
68822;BME280;55834;50.870;4.606;2023-03-31T11:55:39;98684.03;;;10.05;61.20
68822;BME280;55834;50.870;4.606;2023-03-31T11:58:13;98670.78;;;9.77;61.02
68822;BME280;55834;50.870;4.606;2023-03-31T12:00:47;98665.22;;;9.81;60.87
68822;BME280;55834;50.870;4.606;2023-03-31T12:06:02;98659.75;;;10.14;59.18
68822;BME280;55834;50.870;4.606;2023-03-31T12:08:41;98653.13;;;9.93;60.09
68822;BME280;55834;50.870;4.606;2023-03-31T12:11:15;98653.91;;;9.49;61.15
68822;BME280;55834;50.870;4.606;2023-03-31T12:16:21;98660.38;;;10.04;61.69
68822;BME280;55834;50.870;4.606;2023-03-31T12:21:18;98671.34;;;10.12;60.75
68822;BME280;55834;50.870;4.606;2023-03-31T12:23:45;98682.03;;;9.48;62.79
68822;BME280;55834;50.870;4.606;2023-03-31T12:26:34;98678.84;;;10.04;60.84
68822;BME280;55834;50.870;4.606;2023-03-31T12:31:46;98693.88;;;9.87;63.28
68822;BME280;55834;50.870;4.606;2023-03-31T12:34:14;98698.91;;;10.06;62.40
68822;BME280;55834;50.870;4.606;2023-03-31T12:36:54;98700.06;;;9.56;63.60
68822;BME280;55834;50.870;4.606;2023-03-31T12:45:19;98670.72;;;9.92;63.01
68822;BME280;55834;50.870;4.606;2023-03-31T12:47:54;98668.50;;;10.15;62.23
68822;BME280;55834;50.870;4.606;2023-03-31T12:50:31;98655.16;;;10.18;62.28
68822;BME280;55834;50.870;4.606;2023-03-31T12:53:21;98658.69;;;9.72;61.39
68822;BME280;55834;50.870;4.606;2023-03-31T12:55:54;98657.13;;;9.54;62.95
68822;BME280;55834;50.870;4.606;2023-03-31T13:03:53;98676.41;;;9.55;61.21
68822;BME280;55834;50.870;4.606;2023-03-31T13:09:00;98655.94;;;9.28;61.25
68822;BME280;55834;50.870;4.606;2023-03-31T13:14:05;98652.22;;;9.48;59.71
68822;BME280;55834;50.870;4.606;2023-03-31T13:16:33;98647.50;;;9.69;59.26
68822;BME280;55834;50.870;4.606;2023-03-31T13:18:59;98650.00;;;9.86;58.82
68822;BME280;55834;50.870;4.606;2023-03-31T13:21:25;98669.03;;;9.45;58.61
68822;BME280;55834;50.870;4.606;2023-03-31T13:23:51;98632.75;;;9.51;57.99
68822;BME280;55834;50.870;4.606;2023-03-31T13:26:47;98653.00;;;9.34;57.44
68822;BME280;55834;50.870;4.606;2023-03-31T13:34:28;98656.53;;;8.86;61.56
68822;BME280;55834;50.870;4.606;2023-03-31T13:40:21;98650.47;;;9.63;60.09
68822;BME280;55834;50.870;4.606;2023-03-31T13:51:43;98639.16;;;9.61;60.40
68822;BME280;55834;50.870;4.606;2023-03-31T13:57:08;98631.78;;;9.67;60.08
68822;BME280;55834;50.870;4.606;2023-03-31T14:00:09;98629.63;;;8.96;61.02
68822;BME280;55834;50.870;4.606;2023-03-31T14:05:52;98622.34;;;9.33;60.55
68822;BME280;55834;50.870;4.606;2023-03-31T14:08:32;98642.09;;;9.24;58.77
68822;BME280;55834;50.870;4.606;2023-03-31T14:14:10;98626.06;;;9.13;60.05
68822;BME280;55834;50.870;4.606;2023-03-31T14:16:37;98642.19;;;9.07;60.53
68822;BME280;55834;50.870;4.606;2023-03-31T14:25:08;98621.38;;;9.02;60.15
68822;BME280;55834;50.870;4.606;2023-03-31T14:30:16;98636.06;;;9.22;60.71
68822;BME280;55834;50.870;4.606;2023-03-31T14:38:15;98614.25;;;9.66;59.55
68822;BME280;55834;50.870;4.606;2023-03-31T14:40:46;98610.50;;;9.40;59.44
68822;BME280;55834;50.870;4.606;2023-03-31T14:43:20;98598.28;;;9.69;58.01
68822;BME280;55834;50.870;4.606;2023-03-31T14:45:56;98600.06;;;9.69;58.30
68822;BME280;55834;50.870;4.606;2023-03-31T14:48:22;98591.16;;;9.86;57.69
68822;BME280;55834;50.870;4.606;2023-03-31T14:50:47;98593.28;;;9.03;57.84
68822;BME280;55834;50.870;4.606;2023-03-31T14:53:18;98588.78;;;9.81;56.25
68822;BME280;55834;50.870;4.606;2023-03-31T14:55:47;98588.50;;;9.41;57.68
68822;BME280;55834;50.870;4.606;2023-03-31T14:58:26;98597.19;;;9.58;56.93
68822;BME280;55834;50.870;4.606;2023-03-31T15:00:52;98584.94;;;9.42;57.99
68822;BME280;55834;50.870;4.606;2023-03-31T15:03:18;98614.41;;;9.17;58.58
68822;BME280;55834;50.870;4.606;2023-03-31T15:05:44;98599.75;;;9.59;58.16
68822;BME280;55834;50.870;4.606;2023-03-31T15:08:13;98595.25;;;9.61;57.78
68822;BME280;55834;50.870;4.606;2023-03-31T15:10:45;98585.28;;;9.66;58.56
68822;BME280;55834;50.870;4.606;2023-03-31T15:13:19;98602.84;;;9.52;58.46
68822;BME280;55834;50.870;4.606;2023-03-31T15:15:47;98593.28;;;8.87;60.47
68822;BME280;55834;50.870;4.606;2023-03-31T15:18:15;98601.16;;;8.55;60.95
68822;BME280;55834;50.870;4.606;2023-03-31T15:20:42;98612.78;;;8.01;61.88
68822;BME280;55834;50.870;4.606;2023-03-31T15:23:25;98606.72;;;8.33;60.97
68822;BME280;55834;50.870;4.606;2023-03-31T15:25:57;98598.69;;;8.52;61.00
68822;BME280;55834;50.870;4.606;2023-03-31T15:28:25;98590.81;;;9.00;60.18
68822;BME280;55834;50.870;4.606;2023-03-31T15:30:52;98598.72;;;8.84;60.52
68822;BME280;55834;50.870;4.606;2023-03-31T15:33:27;98603.63;;;9.22;59.56
68822;BME280;55834;50.870;4.606;2023-03-31T15:35:56;98588.31;;;9.28;59.80
68822;BME280;55834;50.870;4.606;2023-03-31T15:38:24;98613.13;;;10.15;58.25
68822;BME280;55834;50.870;4.606;2023-03-31T15:41:12;98600.00;;;8.93;60.09
68822;BME280;55834;50.870;4.606;2023-03-31T15:43:46;98596.59;;;9.38;58.86
68822;BME280;55834;50.870;4.606;2023-03-31T15:46:24;98604.41;;;9.24;58.33
68822;BME280;55834;50.870;4.606;2023-03-31T15:48:54;98594.56;;;8.96;60.43
68822;BME280;55834;50.870;4.606;2023-03-31T15:51:36;98582.84;;;8.70;61.06